Startpagina
METAR-TAF:

METAR-TAF

Vliegvelden :

Nouakchott, Mauretanië

Internationale luchthaven van Nouakchott

breedte: 18-18-36N, lengte: 015-58-11W, hoogte: 3 m

Actueel weer

Dit bericht is 25 minuten geleden gemaakt, om 15:00 UTC
Wind 11 kt uit het noorden, variërend tussen het noordnoordwesten en het oostnoordoosten
Temperatuur 32°C
Vochtigheid 43%
Druk 1009 hPa
Zicht: 4500 m
Stuifstof

METAR: GQNO 221500Z 01011KT 330V060 4500 BLDU NSC 32/18 Q1009 NOSIG

Tijdstip: 15:25 (15:25 UTC)

Verwachting

Dit bericht is 4 uur en het 25 minuten geleden gemaakt, om 11:00 UTC
Verwachting geldig van 22 om 12 UTC tot 23 om 18 UTC
Wind 14 kt uit het noordnoordoosten
Zicht: 3000 m
Stuifzand
Wijzigt naar
van 22 om 14 UTC tot 22 om 16 UTC
Wind 14 kt uit het noordwesten
Tijdelijke
van 22 om 20 UTC tot 23 om 08 UTC
Zicht: 6000 m

TAF: GQNO 221100Z 2212/2318 02014KT 3000 BLSA NSC BECMG 2214/2216 32014KT TEMPO 2220/2308 6000

Waarnemingen en weersverwachtingen van meer dan 4000 vliegvelden (METAR en TAF).

De beschikbare stations zijn de gele en rode punten op de kaart.

Ga met uw muis naar het station om de naam te zien.

Klik dan om waarnemingen en weersverwachtingen te zien.

kaart wijzigen: klik op de groene knoppen met een zwart kruis om in te zoomen, op de groene knop met een streepje om uit te zoomen of op de groene pijlen voor aangrenzende kaarten.


METAR-TAF: